Pagrindinis puslapis
METAR-TAF:

METAR-TAF

Oro uostai :

Payerne, Šveicarija

platuma: 46-49N, ilguma: 006-57E, Aukštis: 490 m

Dabartinis oras

Ataskaita buvo paskelbta 16 minutes, ne 16:50 UTC
Vėjas 11 kt iš Pietų/Pietvakarių, svyruoja nuo Pietų ir Vakarų/Pietvakarių
Temperatūra 3°C
Drėgmė 87%
Slėgis 995 hPa
Matomumas 10 km arba daugiau
Mažai debesys ne aukštis 1200 ft
Išsisklaidę debesys ne aukštis 1700 ft
Su prošvaistėmis ne aukštis 10000 ft

METAR: LSMP 231650Z AUTO 20011KT 170V240 9999NDV FEW012 SCT017 BKN100 03/01 Q0995 RESHRA RMK

Laikas: 18:06 (17:06 UTC)


TAF: trūkstamas

Orai ataskaitas ir orų prognozės (METAR, TAF).

turimą stotys yra geltonos ir raudonos taškus žemėlapyje.

Perkelti pele per norėdami pamatyti stoties vardą.

Tada spustelėkite, norėdami matyti oro stebėjimo ir prognozės.

Norėdami pakeisti žemėlapį: spustelėkite ant žalios mygtukų su juodo kryžiaus žemyn,; žalią mygtuką su brūkšneliu, jei norite nutolinti; arba žalių rodyklių gretimoms žemėlapius.


METAR-TAF: